Time;durP1;ratioP1;P1;durP2;ratioP2;P2;SDS_P1;SDS_P2;PMS_P1;PMS_P2;Temp;Humidity;BMP_temperature;BMP_pressure;BME280_temperature;BME280_humidity;BME280_pressure;Samples;Min_cycle;Max_cycle;Signal;HPM_P1;HPM_P2
2023/09/27 00:00:34;;;;;;;;;7.75;6.50;;;;;22.60;47.23;101426.75;4920475;28;45599;-42
2023/09/27 00:02:59;;;;;;;;;8.00;6.00;;;;;22.59;47.40;101433.84;4920259;28;45484;-49
2023/09/27 00:05:25;;;;;;;;;7.25;6.75;;;;;22.60;47.51;101439.97;4920505;28;45543;-47
2023/09/27 00:07:53;;;;;;;;;7.00;7.00;;;;;22.59;47.69;101444.41;4920487;28;45377;-44
2023/09/27 00:10:18;;;;;;;;;9.25;6.75;;;;;22.61;47.49;101441.69;4920471;28;45335;-49
2023/09/27 00:12:48;;;;;;;;;6.25;5.50;;;;;22.59;47.49;101433.84;4920320;28;45436;-43
2023/09/27 00:15:14;;;;;;;;;6.25;5.75;;;;;22.59;47.93;101433.84;4920173;28;45430;-39
2023/09/27 00:17:41;;;;;;;;;9.75;7.50;;;;;22.59;47.53;101428.56;4920259;28;45419;-45
2023/09/27 00:20:11;;;;;;;;;11.00;7.25;;;;;22.60;47.69;101434.69;4920149;28;45343;-46
2023/09/27 00:22:37;;;;;;;;;6.00;6.00;;;;;22.58;47.22;101431.25;4919603;28;46766;-43
2023/09/27 00:25:04;;;;;;;;;7.75;6.00;;;;;22.58;47.48;101433.91;4919782;28;45355;-43
2023/09/27 00:27:30;;;;;;;;;6.50;6.00;;;;;22.57;47.65;101440.13;4920031;28;45354;-45
2023/09/27 00:29:55;;;;;;;;;4.50;4.50;;;;;22.56;47.68;101423.44;4920035;28;45644;-42
2023/09/27 00:32:20;;;;;;;;;6.50;6.00;;;;;22.57;47.74;101421.63;4919657;28;49272;-42
2023/09/27 00:34:46;;;;;;;;;8.25;6.50;;;;;22.59;48.10;101427.69;4919530;28;57994;-44
2023/09/27 00:37:11;;;;;;;;;5.50;4.75;;;;;22.56;47.50;101426.06;4920048;28;45410;-46
2023/09/27 00:39:36;;;;;;;;;8.25;6.00;;;;;22.57;47.73;101435.72;4920178;28;45804;-50
2023/09/27 00:42:02;;;;;;;;;7.25;5.50;;;;;22.59;47.64;101427.69;4919765;28;45314;-46
2023/09/27 00:44:27;;;;;;;;;8.25;6.00;;;;;22.58;47.79;101418.94;4919553;28;45279;-44
2023/09/27 00:46:53;;;;;;;;;8.00;6.50;;;;;22.59;47.77;101422.41;4919800;28;45338;-47
2023/09/27 00:49:18;;;;;;;;;7.50;6.25;;;;;22.57;48.00;101414.56;4919917;28;45613;-47
2023/09/27 00:51:44;;;;;;;;;7.50;7.00;;;;;22.58;48.02;101411.00;4919779;28;45607;-49
2023/09/27 00:54:12;;;;;;;;;6.75;5.75;;;;;22.58;47.84;101420.69;4919684;28;45252;-49
2023/09/27 00:56:38;;;;;;;;;7.00;6.25;;;;;22.57;47.79;101414.56;4918401;28;45422;-51
2023/09/27 00:59:05;;;;;;;;;8.50;6.50;;;;;22.57;48.11;101413.72;4919832;28;45319;-50
2023/09/27 01:01:31;;;;;;;;;8.00;7.00;;;;;22.57;47.87;101411.06;4919390;28;46960;-46
2023/09/27 01:03:57;;;;;;;;;7.25;7.25;;;;;22.58;48.00;101412.78;4919425;28;45312;-45
2023/09/27 01:06:23;;;;;;;;;6.75;6.75;;;;;22.55;47.79;101409.34;4919092;28;45774;-50
2023/09/27 01:08:48;;;;;;;;;6.50;6.00;;;;;22.57;47.78;101411.06;4919789;28;45551;-44
2023/09/27 01:11:14;;;;;;;;;9.25;7.50;;;;;22.55;48.14;101401.44;4919415;28;45981;-46
2023/09/27 01:13:39;;;;;;;;;6.00;6.00;;;;;22.58;48.25;101404.84;4933994;28;45904;-48
2023/09/27 01:16:05;;;;;;;;;4.00;4.00;;;;;22.57;48.08;101404.00;4918679;28;57082;-43
2023/09/27 01:18:31;;;;;;;;;8.00;7.00;;;;;22.57;48.08;101406.66;4919567;28;45760;-45
2023/09/27 01:20:56;;;;;;;;;6.25;5.75;;;;;22.58;48.24;101404.84;4919169;28;46307;-50
2023/09/27 01:23:21;;;;;;;;;6.75;6.75;;;;;22.57;48.32;101403.13;4919198;28;45386;-51
2023/09/27 01:25:50;;;;;;;;;7.00;6.00;;;;;22.57;48.31;101405.78;4919525;28;45426;-41
2023/09/27 01:28:17;;;;;;;;;6.25;5.25;;;;;22.56;48.04;101397.03;4919744;28;45422;-44
2023/09/27 01:30:42;;;;;;;;;6.50;6.25;;;;;22.56;48.32;101407.59;4918803;28;46074;-46
2023/09/27 01:33:11;;;;;;;;;7.50;6.00;;;;;22.57;47.78;101408.41;4918879;28;45203;-48
2023/09/27 01:35:38;;;;;;;;;6.00;6.00;;;;;22.57;48.01;101419.00;4918991;28;45455;-50
2023/09/27 01:38:05;;;;;;;;;6.25;6.25;;;;;22.54;48.13;101412.94;4919115;28;45542;-48
2023/09/27 01:40:32;;;;;;;;;7.75;6.50;;;;;22.54;48.01;101418.22;4918674;28;45521;-51
2023/09/27 01:42:59;;;;;;;;;8.00;5.50;;;;;22.57;48.36;101403.13;4918720;28;45229;-49
2023/09/27 01:45:25;;;;;;;;;7.25;5.50;;;;;22.55;48.60;101404.06;4918678;28;45256;-52
2023/09/27 01:47:50;;;;;;;;;10.50;6.25;;;;;22.55;48.20;101406.72;4919385;28;45373;-52
2023/09/27 01:50:19;;;;;;;;;10.50;6.25;;;;;22.55;48.40;101401.44;4918962;28;47291;-48
2023/09/27 01:52:45;;;;;;;;;8.00;6.00;;;;;22.55;48.01;101406.72;4918534;28;45314;-48
2023/09/27 01:55:11;;;;;;;;;8.00;6.25;;;;;22.55;48.31;101417.28;4918676;28;45260;-47
2023/09/27 01:57:36;;;;;;;;;6.25;6.25;;;;;22.54;48.12;101401.53;4918981;28;45214;-47
2023/09/27 02:00:04;;;;;;;;;6.50;6.00;;;;;22.56;48.20;101407.59;4918480;28;45468;-46
2023/09/27 02:02:29;;;;;;;;;9.00;6.75;;;;;22.55;48.55;101417.28;4918546;28;45276;-51
2023/09/27 02:04:54;;;;;;;;;9.00;7.75;;;;;22.56;48.19;101423.44;4918587;28;45221;-44
2023/09/27 02:07:20;;;;;;;;;8.00;6.25;;;;;22.55;48.42;101422.56;4918926;28;45362;-47
2023/09/27 02:09:45;;;;;;;;;7.00;6.00;;;;;22.54;48.23;101417.38;4918456;28;46428;-45
2023/09/27 02:12:10;;;;;;;;;5.25;5.25;;;;;22.55;47.85;101419.94;4918220;28;54851;-44
2023/09/27 02:14:36;;;;;;;;;7.00;5.50;;;;;22.55;48.51;101419.94;4918688;28;45315;-46
2023/09/27 02:17:01;;;;;;;;;7.00;6.00;;;;;22.53;48.13;101413.03;4918776;28;45377;-49
2023/09/27 02:19:26;;;;;;;;;6.75;5.50;;;;;22.54;48.35;101415.56;4920813;28;56730;-46
2023/09/27 02:21:52;;;;;;;;;7.00;5.00;;;;;22.54;48.28;101404.16;4921496;28;63932;-49
2023/09/27 02:24:17;;;;;;;;;8.00;7.00;;;;;22.53;48.33;101403.34;4921892;28;45358;-47
2023/09/27 02:26:43;;;;;;;;;7.75;6.00;;;;;22.54;48.46;101402.38;4922066;28;45321;-48
2023/09/27 02:29:08;;;;;;;;;7.00;5.00;;;;;22.54;48.42;101393.59;4921634;28;46368;-49
2023/09/27 02:31:33;;;;;;;;;5.25;5.25;;;;;22.53;48.81;101390.13;4921809;28;45334;-43
2023/09/27 02:33:59;;;;;;;;;5.67;5.67;;;;;22.53;48.41;101389.25;4921056;28;61505;-47
2023/09/27 02:36:24;;;;;;;;;6.75;5.25;;;;;22.52;48.19;101380.50;4921497;28;45840;-46
2023/09/27 02:38:49;;;;;;;;;9.00;6.25;;;;;22.53;48.61;101398.06;4921486;28;58076;-49
2023/09/27 02:41:15;;;;;;;;;6.50;5.00;;;;;22.54;48.35;101401.53;4921508;28;45475;-49
2023/09/27 02:43:40;;;;;;;;;7.00;7.00;;;;;22.53;48.41;101394.53;4920854;28;58890;-47
2023/09/27 02:46:06;;;;;;;;;5.75;4.25;;;;;22.51;48.40;101397.28;4921873;28;45288;-50
2023/09/27 02:48:32;;;;;;;;;6.00;6.00;;;;;22.50;48.48;101398.22;4921404;28;46100;-49
2023/09/27 02:50:57;;;;;;;;;6.25;6.25;;;;;22.53;48.54;101405.97;4921396;28;45291;-44
2023/09/27 02:53:22;;;;;;;;;5.33;5.00;;;;;22.53;48.72;101402.47;4921110;28;57402;-49
2023/09/27 02:55:48;;;;;;;;;6.25;6.00;;;;;22.53;48.63;101402.47;4921715;28;45638;-48
2023/09/27 02:58:13;;;;;;;;;8.00;5.50;;;;;22.54;48.81;101409.44;4921102;28;52097;-46
2023/09/27 03:00:40;;;;;;;;;6.00;6.00;;;;;22.53;48.33;101407.75;4921145;28;45298;-44
2023/09/27 03:03:07;;;;;;;;;7.50;6.00;;;;;22.54;48.28;101401.53;4921345;28;45405;-44
2023/09/27 03:05:35;;;;;;;;;6.75;6.25;;;;;22.54;48.38;101393.59;4921515;28;45557;-42
2023/09/27 03:08:00;;;;;;;;;6.75;6.75;;;;;22.54;48.27;101402.38;4921209;28;45337;-44
2023/09/27 03:10:26;;;;;;;;;7.50;7.50;;;;;22.53;48.31;101395.41;4921145;28;45280;-42
2023/09/27 03:12:51;;;;;;;;;8.50;6.00;;;;;22.54;48.78;101394.44;4921430;28;45385;-44
2023/09/27 03:15:17;;;;;;;;;6.75;5.50;;;;;22.53;48.62;101392.75;4921384;28;45961;-43
2023/09/27 03:17:44;;;;;;;;;5.25;4.50;;;;;22.53;48.84;101398.06;4920830;28;45415;-45
2023/09/27 03:20:15;;;;;;;;;6.75;6.00;;;;;22.51;48.69;101386.72;4920950;28;45243;-42
2023/09/27 03:22:44;;;;;;;;;7.00;7.00;;;;;22.53;48.58;101387.47;4921058;28;45683;-40
2023/09/27 03:25:09;;;;;;;;;7.00;5.50;;;;;22.52;48.66;101375.22;4921270;28;45593;-42
2023/09/27 03:27:36;;;;;;;;;6.25;6.00;;;;;22.53;48.41;101370.75;4920651;28;45834;-43
2023/09/27 03:30:01;;;;;;;;;8.75;6.00;;;;;22.52;48.73;101372.56;4920566;28;45708;-45
2023/09/27 03:32:27;;;;;;;;;6.75;6.00;;;;;22.51;48.82;101376.13;4920989;28;45319;-38
2023/09/27 03:34:52;;;;;;;;;6.50;6.25;;;;;22.51;48.73;101377.91;4920770;28;49860;-40
2023/09/27 03:37:18;;;;;;;;;6.00;6.00;;;;;22.52;48.71;101369.06;4920117;28;65610;-44
2023/09/27 03:39:43;;;;;;;;;6.00;6.00;;;;;22.52;48.60;101364.63;4920743;28;45560;-47
2023/09/27 03:42:09;;;;;;;;;6.50;6.00;;;;;22.51;48.74;101355.00;4920758;28;45350;-51
2023/09/27 03:44:35;;;;;;;;;6.00;6.00;;;;;22.52;48.83;101358.50;4919585;28;45574;-48
2023/09/27 03:47:01;;;;;;;;;6.00;5.25;;;;;22.50;48.63;101352.44;4920539;28;46432;-53
2023/09/27 03:49:26;;;;;;;;;6.50;6.00;;;;;22.52;49.02;101366.41;4920251;28;60359;-49
2023/09/27 03:51:51;;;;;;;;;5.25;5.00;;;;;22.52;48.92;101359.34;4920581;28;45212;-51
2023/09/27 03:54:17;;;;;;;;;8.25;6.00;;;;;22.50;48.61;101350.66;4920807;28;45613;-53
2023/09/27 03:56:42;;;;;;;;;6.00;6.00;;;;;22.51;49.10;101349.72;4919778;28;46332;-52
2023/09/27 03:59:07;;;;;;;;;7.00;5.25;;;;;22.50;48.91;101347.16;4920348;28;47928;-42
2023/09/27 04:01:32;;;;;;;;;5.25;4.50;;;;;22.50;48.73;101350.66;4920003;28;56377;-43
2023/09/27 04:03:58;;;;;;;;;6.00;5.00;;;;;22.51;48.64;101352.38;4920986;28;45730;-50
2023/09/27 04:06:26;;;;;;;;;6.00;5.50;;;;;22.50;49.21;101345.38;4920340;28;47252;-43
2023/09/27 04:08:51;;;;;;;;;8.25;6.75;;;;;22.50;48.97;101344.50;4920209;28;45434;-45
2023/09/27 04:11:16;;;;;;;;;5.25;4.00;;;;;22.50;48.94;101345.38;4920291;28;45351;-48
2023/09/27 04:13:42;;;;;;;;;6.25;6.25;;;;;22.50;48.93;101340.09;4920416;28;45660;-45
2023/09/27 04:16:07;;;;;;;;;5.00;4.25;;;;;22.49;48.97;101333.09;4920007;28;45496;-41
2023/09/27 04:18:33;;;;;;;;;7.50;6.00;;;;;22.51;48.71;101339.16;4920138;28;45415;-45
2023/09/27 04:21:07;;;;;;;;;6.50;6.50;;;;;22.51;49.19;101340.94;4920573;28;45327;-42
2023/09/27 04:23:33;;;;;;;;;8.00;8.00;;;;;22.52;48.62;101342.63;4920417;28;45315;-42
2023/09/27 04:26:00;;;;;;;;;7.00;5.50;;;;;22.52;49.00;101337.34;4920148;28;46583;-39
2023/09/27 04:28:25;;;;;;;;;6.00;6.00;;;;;22.52;48.98;101340.88;4920304;28;45357;-43
2023/09/27 04:30:51;;;;;;;;;6.75;6.75;;;;;22.52;48.93;101335.59;4920155;28;45306;-45
2023/09/27 04:33:17;;;;;;;;;7.25;6.50;;;;;22.52;48.71;101334.72;4920117;28;45217;-42
2023/09/27 04:35:42;;;;;;;;;12.00;8.50;;;;;22.53;48.75;101336.41;4919727;28;45380;-41
2023/09/27 04:38:09;;;;;;;;;8.00;6.33;;;;;22.52;49.03;101319.72;4919104;28;66581;-43
2023/09/27 04:40:35;;;;;;;;;7.00;6.00;;;;;22.52;48.67;101317.09;4919014;28;45656;-41
2023/09/27 04:43:00;;;;;;;;;8.50;7.00;;;;;22.50;48.86;101318.97;4920383;28;45266;-41
2023/09/27 04:45:25;;;;;;;;;10.75;8.75;;;;;22.51;48.83;101331.22;4919692;28;46639;-41
2023/09/27 04:47:52;;;;;;;;;6.75;6.00;;;;;22.51;48.84;101331.22;4918934;28;56984;-41
2023/09/27 04:50:17;;;;;;;;;11.00;7.00;;;;;22.52;49.13;101330.31;4934516;28;45464;-46
2023/09/27 04:52:43;;;;;;;;;9.00;9.00;;;;;22.50;48.87;101329.53;4934629;28;45401;-45
2023/09/27 04:55:08;;;;;;;;;10.00;8.50;;;;;22.50;48.93;101329.53;4919341;28;45549;-45
2023/09/27 04:57:34;;;;;;;;;9.50;8.00;;;;;22.49;48.92;101319.91;4919683;28;45378;-42
2023/09/27 05:00:00;;;;;;;;;8.00;8.00;;;;;22.49;48.94;101311.97;4920069;28;45338;-43
2023/09/27 05:02:27;;;;;;;;;5.50;5.50;;;;;22.49;48.89;101322.53;4928597;28;45347;-42
2023/09/27 05:04:52;;;;;;;;;9.00;7.75;;;;;22.49;49.02;101317.25;4938438;28;45634;-42
2023/09/27 05:07:19;;;;;;;;;7.25;7.25;;;;;22.50;48.69;101312.81;4938717;28;45235;-42
2023/09/27 05:09:45;;;;;;;;;6.00;6.00;;;;;22.50;48.49;101308.41;4937497;28;45337;-42
2023/09/27 05:12:12;;;;;;;;;9.50;9.00;;;;;22.49;48.94;101309.34;4938834;28;45516;-44
2023/09/27 05:14:38;;;;;;;;;7.25;7.25;;;;;22.49;48.90;101317.25;4928764;28;48613;-47
2023/09/27 05:17:03;;;;;;;;;8.00;7.00;;;;;22.49;48.97;101321.69;4919308;28;45509;-45
2023/09/27 05:19:29;;;;;;;;;7.00;6.00;;;;;22.51;49.33;101318.03;4919712;28;45350;-49
2023/09/27 05:21:54;;;;;;;;;8.25;7.00;;;;;22.54;49.07;101320.47;4919557;28;45565;-43
2023/09/27 05:24:19;;;;;;;;;8.75;7.00;;;;;22.59;49.06;101316.72;4919140;28;45780;-46
2023/09/27 05:26:45;;;;;;;;;7.75;6.75;;;;;22.62;49.21;101316.56;4919136;28;45381;-50
2023/09/27 05:29:13;;;;;;;;;7.00;7.00;;;;;22.65;48.62;101316.41;4919221;28;45365;-49
2023/09/27 05:31:45;;;;;;;;;6.75;6.25;;;;;22.68;48.98;101322.34;4917141;28;45650;-45
2023/09/27 05:34:10;;;;;;;;;6.50;6.00;;;;;22.70;48.72;101324.91;4918863;28;45487;-49
2023/09/27 05:36:36;;;;;;;;;8.00;7.75;;;;;22.71;48.45;101326.59;4918282;28;66200;-49
2023/09/27 05:39:02;;;;;;;;;11.50;6.25;;;;;22.73;48.30;101331.78;4919425;28;45261;-44
2023/09/27 05:41:28;;;;;;;;;8.25;6.50;;;;;22.73;48.59;101337.94;4919257;28;45645;-44
2023/09/27 05:43:53;;;;;;;;;7.00;6.50;;;;;22.73;48.50;101339.72;4918783;28;45454;-45
2023/09/27 05:46:19;;;;;;;;;8.75;8.75;;;;;22.69;48.50;101342.56;4918868;28;45366;-47
2023/09/27 05:48:44;;;;;;;;;7.00;7.00;;;;;22.68;48.47;101342.63;4919199;28;45419;-42
2023/09/27 05:51:10;;;;;;;;;8.50;7.00;;;;;22.65;48.59;101361.31;4919054;28;45466;-47
2023/09/27 05:53:35;;;;;;;;;7.00;5.25;;;;;22.63;48.36;101357.91;4918371;28;47014;-46
2023/09/27 05:56:03;;;;;;;;;6.50;6.50;;;;;22.62;48.25;101358.84;4918789;28;54094;-45
2023/09/27 05:58:33;;;;;;;;;8.00;7.00;;;;;22.61;48.63;101363.25;4918901;28;45461;-43
2023/09/27 06:00:59;;;;;;;;;9.00;6.00;;;;;22.60;48.32;101361.53;4918947;28;45342;-48
2023/09/27 06:03:25;;;;;;;;;8.25;7.25;;;;;22.60;48.62;101366.00;4918717;28;46566;-44
2023/09/27 06:05:51;;;;;;;;;8.00;7.00;;;;;22.60;48.56;101366.00;4918591;28;45794;-45
2023/09/27 06:08:16;;;;;;;;;11.00;8.00;;;;;22.57;48.30;101363.50;4918491;28;49765;-47
2023/09/27 06:10:41;;;;;;;;;7.75;7.00;;;;;22.55;48.25;101375.00;4918904;28;45557;-48
2023/09/27 06:13:07;;;;;;;;;8.50;8.00;;;;;22.55;48.35;101375.00;4918006;28;60616;-43
2023/09/27 06:15:33;;;;;;;;;8.00;6.50;;;;;22.53;48.75;101378.69;4933543;28;45354;-46
2023/09/27 06:17:59;;;;;;;;;7.75;7.75;;;;;;;;4932989;28;45434;-45
2023/09/27 06:20:29;;;;;;;;;8.00;8.00;;;;;22.52;48.66;101364.63;4918690;28;45561;-48
2023/09/27 06:22:57;;;;;;;;;9.00;9.00;;;;;22.52;48.35;101364.63;4918040;28;45361;-51
2023/09/27 06:25:29;;;;;;;;;7.75;7.50;;;;;22.51;48.75;101362.94;4918510;28;45376;-49
2023/09/27 06:27:55;;;;;;;;;8.75;8.00;;;;;22.51;48.61;101378.78;4918492;28;45249;-48
2023/09/27 06:30:20;;;;;;;;;8.00;7.25;;;;;22.51;48.37;101378.78;4918687;28;45647;-45
2023/09/27 06:32:46;;;;;;;;;9.50;7.50;;;;;22.49;48.32;101367.44;4918204;28;46312;-51
2023/09/27 06:35:14;;;;;;;;;9.75;8.00;;;;;22.51;48.58;101368.22;4918218;28;45792;-46
2023/09/27 06:37:43;;;;;;;;;11.00;10.00;;;;;22.49;48.67;101370.09;4918472;28;45291;-46
2023/09/27 06:40:16;;;;;;;;;8.00;8.00;;;;;22.48;48.72;101378.94;4918529;28;45578;-49
2023/09/27 06:42:43;;;;;;;;;9.50;8.25;;;;;22.46;48.74;101380.81;4916782;28;46241;-46
2023/09/27 06:45:10;;;;;;;;;13.25;10.25;;;;;22.46;48.60;101375.53;4918012;28;45795;-40
2023/09/27 06:47:38;;;;;;;;;9.50;8.00;;;;;22.46;48.71;101380.81;4918614;28;45441;-44
2023/09/27 06:50:04;;;;;;;;;8.50;7.25;;;;;22.45;48.50;101379.09;4918657;28;45528;-45
2023/09/27 06:52:29;;;;;;;;;10.75;8.00;;;;;22.45;48.17;101384.38;4917759;28;47534;-44
2023/09/27 06:54:55;;;;;;;;;10.25;8.75;;;;;22.45;48.51;101383.53;4917965;28;45290;-45
2023/09/27 06:57:20;;;;;;;;;11.00;9.50;;;;;22.45;48.71;101389.66;4918186;28;45434;-46
2023/09/27 06:59:45;;;;;;;;;10.00;9.50;;;;;22.45;48.55;101387.03;4918217;28;45653;-47
2023/09/27 07:02:11;;;;;;;;;9.00;8.50;;;;;22.48;48.79;101386.88;4917812;28;45261;-48
2023/09/27 07:04:38;;;;;;;;;8.25;8.00;;;;;22.48;48.69;101386.88;4920553;28;45373;-49
2023/09/27 07:07:04;;;;;;;;;8.25;7.75;;;;;22.48;48.72;101378.94;4930034;28;45489;-44
2023/09/27 07:09:32;;;;;;;;;11.50;9.50;;;;;22.48;48.46;101381.59;4945977;28;45672;-50
2023/09/27 07:11:58;;;;;;;;;8.00;8.00;;;;;22.48;48.44;101381.59;4929641;28;46259;-51
2023/09/27 07:14:24;;;;;;;;;8.75;7.75;;;;;22.49;48.54;101383.28;4929589;28;45340;-50
2023/09/27 07:16:50;;;;;;;;;10.50;9.00;;;;;22.50;48.84;101381.50;4925975;28;45417;-51
2023/09/27 07:19:17;;;;;;;;;12.00;10.50;;;;;22.50;48.64;101378.84;4921414;28;45477;-51
2023/09/27 07:21:43;;;;;;;;;8.50;7.00;;;;;22.48;48.72;101376.31;4920898;28;46114;-44
2023/09/27 07:24:09;;;;;;;;;10.75;9.50;;;;;22.50;49.19;101377.06;4921180;28;45365;-46
2023/09/27 07:26:35;;;;;;;;;12.25;9.00;;;;;22.47;48.62;101377.22;4921217;28;45352;-49
2023/09/27 07:29:01;;;;;;;;;9.25;9.25;;;;;22.47;49.04;101371.13;4921286;28;45504;-46
2023/09/27 07:31:26;;;;;;;;;14.25;11.00;;;;;22.45;49.08;101368.53;4920650;28;45373;-45
2023/09/27 07:33:54;;;;;;;;;11.00;10.25;;;;;22.42;48.98;101362.56;4920586;28;45424;-46
2023/09/27 07:36:20;;;;;;;;;11.25;8.00;;;;;22.39;49.07;101368.84;4920915;28;45378;-46
2023/09/27 07:38:49;;;;;;;;;9.00;9.00;;;;;22.37;49.12;101365.44;4921008;28;45337;-50
2023/09/27 07:41:15;;;;;;;;;11.25;9.00;;;;;22.38;49.22;101372.44;4919279;28;46807;-47
2023/09/27 07:43:41;;;;;;;;;13.25;11.00;;;;;22.37;49.25;101370.72;4920702;28;45600;-42
2023/09/27 07:46:06;;;;;;;;;12.00;9.50;;;;;22.37;48.77;101371.59;4920980;28;45389;-45
2023/09/27 07:48:39;;;;;;;;;10.25;9.25;;;;;22.38;49.21;101372.44;4920930;28;45652;-45
2023/09/27 07:51:11;;;;;;;;;10.25;9.00;;;;;22.38;49.29;101377.72;4920388;28;45397;-50
2023/09/27 07:53:37;;;;;;;;;11.50;9.50;;;;;22.37;48.92;101376.88;4920645;28;45750;-49
2023/09/27 07:56:03;;;;;;;;;13.00;9.00;;;;;22.39;49.34;101366.22;4920586;28;45489;-50
2023/09/27 07:58:29;;;;;;;;;11.25;9.00;;;;;22.38;49.31;101361.88;4920688;28;45462;-49
2023/09/27 08:00:54;;;;;;;;;13.00;12.25;;;;;22.36;49.38;101361.09;4919044;28;46952;-51
2023/09/27 08:03:21;;;;;;;;;11.25;10.00;;;;;22.36;49.30;101367.25;4920390;28;45224;-51
2023/09/27 08:05:49;;;;;;;;;9.00;9.00;;;;;22.39;49.10;101363.56;4920295;28;45397;-50
2023/09/27 08:08:15;;;;;;;;;9.00;8.25;;;;;22.39;49.29;101353.00;4920710;28;45556;-50
2023/09/27 08:10:45;;;;;;;;;8.75;7.50;;;;;22.41;48.87;101356.47;4920454;28;45405;-48
2023/09/27 08:13:15;;;;;;;;;7.00;7.00;;;;;22.43;49.05;101349.31;4920365;28;45721;-47
2023/09/27 08:15:41;;;;;;;;;9.25;8.00;;;;;22.44;49.51;101340.41;4919364;28;45314;-50
2023/09/27 08:18:07;;;;;;;;;9.25;8.00;;;;;22.46;49.13;101346.47;4920427;28;45589;-52
2023/09/27 08:20:32;;;;;;;;;9.50;9.25;;;;;22.45;49.38;101347.41;4920108;28;46823;-48
2023/09/27 08:22:58;;;;;;;;;12.50;10.75;;;;;22.45;49.43;101342.13;4920116;28;45260;-49
2023/09/27 08:25:23;;;;;;;;;11.25;9.00;;;;;22.46;49.24;101341.19;4920123;28;45232;-45
2023/09/27 08:27:50;;;;;;;;;10.75;9.75;;;;;22.46;49.40;101343.84;4920326;28;45537;-50
2023/09/27 08:30:16;;;;;;;;;9.25;9.25;;;;;22.47;49.02;101340.25;4934625;28;47285;-48
2023/09/27 08:32:41;;;;;;;;;12.75;10.25;;;;;22.49;49.30;101333.09;4920061;28;45457;-48
2023/09/27 08:35:07;;;;;;;;;10.75;9.75;;;;;22.49;49.44;101327.81;4920044;28;45332;-45
2023/09/27 08:37:32;;;;;;;;;14.25;10.00;;;;;22.51;49.26;101325.09;4920052;28;45395;-42
2023/09/27 08:39:58;;;;;;;;;13.00;11.00;;;;;22.50;49.34;101316.31;4919560;28;47184;-47
2023/09/27 08:42:23;;;;;;;;;11.75;11.00;;;;;22.51;49.30;101307.47;4919774;28;45282;-46
2023/09/27 08:44:52;;;;;;;;;13.25;10.75;;;;;22.50;49.56;101308.41;4918525;28;45475;-49
2023/09/27 08:47:18;;;;;;;;;14.50;11.25;;;;;22.50;49.57;101311.03;4919962;28;45378;-44
2023/09/27 08:49:49;;;;;;;;;13.75;10.75;;;;;22.48;49.31;101299.69;4919771;28;47158;-46
2023/09/27 08:52:15;;;;;;;;;10.50;9.00;;;;;22.51;49.54;101296.03;4920080;28;45829;-47
2023/09/27 08:54:40;;;;;;;;;13.50;13.00;;;;;22.52;49.35;101289.81;4919774;28;45453;-45
2023/09/27 08:57:06;;;;;;;;;12.75;12.75;;;;;22.50;49.75;101287.25;4919760;28;45719;-44
2023/09/27 08:59:32;;;;;;;;;11.00;9.75;;;;;22.51;49.43;101277.53;4919452;28;45425;-48
2023/09/27 09:01:58;;;;;;;;;11.75;11.75;;;;;22.51;49.41;101278.41;4919425;28;45303;-48
2023/09/27 09:04:24;;;;;;;;;10.75;10.50;;;;;22.52;49.69;101273.97;4919454;28;45284;-48
2023/09/27 09:06:50;;;;;;;;;11.75;10.00;;;;;22.53;49.06;101275.66;4919554;28;45704;-46
2023/09/27 09:09:16;;;;;;;;;13.75;11.75;;;;;22.53;49.49;101273.03;4918900;28;46458;-42
2023/09/27 09:11:56;;;;;;;;;13.00;10.00;;;;;22.54;49.09;101277.38;4919573;28;45286;-43
2023/09/27 09:14:44;;;;;;;;;11.25;10.25;;;;;22.53;49.53;101270.38;4918987;28;45295;-45
2023/09/27 09:17:11;;;;;;;;;15.00;11.00;;;;;22.54;49.42;101272.91;4919558;28;45388;-41
2023/09/27 09:19:41;;;;;;;;;12.75;9.00;;;;;22.53;49.61;101263.31;4918782;28;46117;-47
2023/09/27 09:22:08;;;;;;;;;9.00;9.00;;;;;22.52;49.17;101258.13;4919578;28;45396;-49
2023/09/27 09:24:41;;;;;;;;;11.00;9.75;;;;;22.52;49.25;101272.19;4919328;28;45458;-49
2023/09/27 09:27:14;;;;;;;;;9.50;9.50;;;;;22.51;49.26;101265.19;4919194;28;45247;-47
2023/09/27 09:29:43;;;;;;;;;8.00;8.00;;;;;22.54;49.12;101274.72;4919167;28;46160;-46
2023/09/27 09:32:08;;;;;;;;;8.00;8.00;;;;;22.53;49.00;101263.31;4919038;28;45656;-44
2023/09/27 09:34:43;;;;;;;;;12.00;10.50;;;;;22.54;49.22;101262.34;4919141;28;45244;-46
2023/09/27 09:37:27;;;;;;;;;10.00;8.75;;;;;22.54;48.98;101258.88;4919308;28;45474;-49
2023/09/27 09:39:53;;;;;;;;;10.50;9.00;;;;;22.54;49.38;101267.63;4918889;28;47282;-48
2023/09/27 09:42:32;;;;;;;;;8.00;8.00;;;;;22.57;48.73;101268.41;4918922;28;45364;-55
2023/09/27 09:45:06;;;;;;;;;9.25;8.25;;;;;22.55;49.07;101264.06;4918804;28;45317;-45
2023/09/27 09:47:32;;;;;;;;;11.00;8.50;;;;;22.57;48.76;101265.78;4918975;28;45510;-47
2023/09/27 09:49:58;;;;;;;;;10.00;9.75;;;;;22.58;48.78;101264.84;4918713;28;46555;-47
2023/09/27 09:52:30;;;;;;;;;8.00;8.00;;;;;22.59;49.01;101269.19;4918833;28;45422;-42
2023/09/27 09:54:57;;;;;;;;;6.75;6.00;;;;;22.59;48.58;101256.84;4918880;28;45452;-44
2023/09/27 09:57:33;;;;;;;;;8.50;7.50;;;;;22.59;49.23;101248.03;4918958;28;45581;-42
2023/09/27 10:00:19;;;;;;;;;9.75;6.25;;;;;22.61;49.01;101235.59;4918470;28;46140;-42
2023/09/27 10:02:49;;;;;;;;;9.25;6.75;;;;;22.63;48.68;101231.94;4917376;28;45323;-46
2023/09/27 10:05:18;;;;;;;;;11.00;7.75;;;;;22.63;48.76;101229.28;4919160;28;45467;-43
2023/09/27 10:07:44;;;;;;;;;8.75;7.75;;;;;22.65;48.67;101229.22;4918920;28;45468;-41
2023/09/27 10:10:09;;;;;;;;;7.75;6.75;;;;;22.67;48.83;101222.03;4918344;28;45799;-45
2023/09/27 10:12:37;;;;;;;;;8.00;7.75;;;;;22.68;48.77;101208.75;4918520;28;45283;-47
2023/09/27 10:15:05;;;;;;;;;8.75;6.00;;;;;22.69;49.09;101206.94;4918509;28;45220;-49
2023/09/27 10:17:33;;;;;;;;;8.50;7.25;;;;;22.71;49.00;101205.06;4918686;28;45295;-45
2023/09/27 10:20:20;;;;;;;;;7.50;7.50;;;;;22.71;48.83;101194.50;4918121;28;46637;-44
2023/09/27 10:22:47;;;;;;;;;8.50;7.75;;;;;22.74;48.96;101196.97;4917297;28;45513;-43
2023/09/27 10:25:24;;;;;;;;;7.75;7.75;;;;;22.74;48.71;101189.03;4918521;28;45277;-43
2023/09/27 10:28:01;;;;;;;;;8.75;8.25;;;;;22.74;48.59;101189.03;4917633;28;45531;-45
2023/09/27 10:30:48;;;;;;;;;7.25;6.50;;;;;22.77;48.61;101188.00;4918205;28;45453;-44
2023/09/27 10:33:20;;;;;;;;;7.25;7.00;;;;;22.78;48.83;101197.63;4911439;28;45381;-46
2023/09/27 10:36:07;;;;;;;;;5.50;5.25;;;;;22.78;48.42;101187.91;4918543;28;45408;-48
2023/09/27 10:38:41;;;;;;;;;7.00;6.00;;;;;22.81;48.87;101189.53;4918280;28;45644;-47
2023/09/27 10:41:07;;;;;;;;;7.00;7.00;;;;;22.80;48.56;101186.00;4936033;28;47435;-43
2023/09/27 10:43:32;;;;;;;;;6.75;6.75;;;;;22.81;48.28;101187.72;4921203;28;45393;-44
2023/09/27 10:45:59;;;;;;;;;6.50;6.00;;;;;22.82;48.72;101180.66;4921377;28;45346;-44
2023/09/27 10:48:24;;;;;;;;;10.00;7.00;;;;;22.83;48.60;101192.91;4921874;28;45589;-43
2023/09/27 10:50:56;;;;;;;;;7.50;5.25;;;;;22.84;48.13;101187.53;4921531;28;46623;-45
2023/09/27 10:53:21;;;;;;;;;8.00;6.00;;;;;22.85;48.69;101196.31;4921539;28;45819;-49
2023/09/27 10:55:47;;;;;;;;;10.00;8.25;;;;;22.85;48.61;101197.19;4921655;28;45259;-48
2023/09/27 10:58:15;;;;;;;;;9.25;9.00;;;;;22.87;48.15;101193.59;4921612;28;45382;-45
2023/09/27 11:00:56;;;;;;;;;9.50;6.00;;;;;22.88;47.96;101189.97;4921115;28;46489;-49
2023/09/27 11:03:25;;;;;;;;;7.75;7.50;;;;;22.88;48.13;101192.63;4921591;28;45882;-45
2023/09/27 11:05:51;;;;;;;;;7.75;7.00;;;;;22.90;47.99;101188.09;4920161;28;45337;-40
2023/09/27 11:08:22;;;;;;;;;6.75;6.25;;;;;22.90;48.03;101193.38;4920037;28;45508;-44
2023/09/27 11:10:52;;;;;;;;;9.00;6.25;;;;;22.92;48.30;101197.66;4920937;28;45428;-48
2023/09/27 11:13:19;;;;;;;;;7.75;6.00;;;;;22.93;47.93;101198.50;4921462;28;45675;-47
2023/09/27 11:15:44;;;;;;;;;8.75;5.50;;;;;22.94;48.01;101194.91;4921040;28;45310;-46
2023/09/27 11:18:11;;;;;;;;;8.50;7.25;;;;;22.94;48.05;101189.63;4921240;28;45445;-46
2023/09/27 11:20:37;;;;;;;;;9.25;6.00;;;;;22.94;47.82;101200.22;4920844;28;47467;-44
2023/09/27 11:23:03;;;;;;;;;7.25;7.00;;;;;22.93;47.85;101178.19;4920860;28;45334;-42